Pacajus, Brazil
Current Conditions -  °F | °C
As of 12:00 AM on Sunday 26 Oct 2014 (Local Time) from SBFZ Reporting Station
Broken Clouds Broken Clouds  
Wind Chill: 79°   Ceiling: 2000
Heat Index: 81°   Visibility: 6mi
Dew Point: 68°   Wind: 15mph
Humidity: 69%   Direction: 100°E
Pressure: 29.85"   Gusts: NA
Location:  4.16°S, 38.47°W
Report Text: SBFZ 260300Z 10013KT 9999 BKN020 26/20 Q1011
Loading
Personal Weather Stations






























Interactive Weather Map
Tropical Storm Tracking
New forecast layout! Learn more

10-Day Weather Forecast

Advertisements
Track Severe Weather on mobile